sensor_id;sensor_type;location;lat;lon;timestamp;temperature;humidity
44215;DHT22;29884;47.450;19.124;2023-05-29T00:02:14;15.90;99.90
44215;DHT22;29884;47.450;19.124;2023-05-29T00:04:40;16.00;99.90
44215;DHT22;29884;47.450;19.124;2023-05-29T00:07:06;16.00;99.90
44215;DHT22;29884;47.450;19.124;2023-05-29T00:09:31;16.10;99.90
44215;DHT22;29884;47.450;19.124;2023-05-29T00:11:57;16.10;99.90
44215;DHT22;29884;47.450;19.124;2023-05-29T00:14:23;16.00;99.90
44215;DHT22;29884;47.450;19.124;2023-05-29T00:16:49;16.00;99.90
44215;DHT22;29884;47.450;19.124;2023-05-29T00:19:16;16.10;99.90
44215;DHT22;29884;47.450;19.124;2023-05-29T00:21:47;16.00;99.90
44215;DHT22;29884;47.450;19.124;2023-05-29T00:24:16;16.00;99.90
44215;DHT22;29884;47.450;19.124;2023-05-29T00:26:43;15.90;99.90
44215;DHT22;29884;47.450;19.124;2023-05-29T00:29:09;15.90;99.90
44215;DHT22;29884;47.450;19.124;2023-05-29T00:31:35;15.90;99.90
44215;DHT22;29884;47.450;19.124;2023-05-29T00:34:03;15.90;99.90
44215;DHT22;29884;47.450;19.124;2023-05-29T00:36:29;15.90;99.90
44215;DHT22;29884;47.450;19.124;2023-05-29T00:38:55;15.90;99.90
44215;DHT22;29884;47.450;19.124;2023-05-29T00:41:21;15.80;99.90
44215;DHT22;29884;47.450;19.124;2023-05-29T00:43:46;15.80;99.90
44215;DHT22;29884;47.450;19.124;2023-05-29T00:46:13;15.70;99.90
44215;DHT22;29884;47.450;19.124;2023-05-29T00:48:41;15.70;99.90
44215;DHT22;29884;47.450;19.124;2023-05-29T00:51:08;15.70;99.90
44215;DHT22;29884;47.450;19.124;2023-05-29T00:53:35;15.80;99.90
44215;DHT22;29884;47.450;19.124;2023-05-29T00:56:01;15.70;99.90
44215;DHT22;29884;47.450;19.124;2023-05-29T00:58:27;15.70;99.90
44215;DHT22;29884;47.450;19.124;2023-05-29T01:00:53;15.70;99.90
44215;DHT22;29884;47.450;19.124;2023-05-29T01:03:20;15.60;99.90
44215;DHT22;29884;47.450;19.124;2023-05-29T01:05:48;15.60;99.90
44215;DHT22;29884;47.450;19.124;2023-05-29T01:08:14;15.60;99.90
44215;DHT22;29884;47.450;19.124;2023-05-29T01:10:40;15.60;99.90
44215;DHT22;29884;47.450;19.124;2023-05-29T01:13:23;15.60;99.90
44215;DHT22;29884;47.450;19.124;2023-05-29T01:16:12;15.50;99.90
44215;DHT22;29884;47.450;19.124;2023-05-29T01:24:22;15.50;99.90
44215;DHT22;29884;47.450;19.124;2023-05-29T01:27:03;15.50;99.90
44215;DHT22;29884;47.450;19.124;2023-05-29T01:29:30;15.50;99.90
44215;DHT22;29884;47.450;19.124;2023-05-29T01:31:58;15.40;99.90
44215;DHT22;29884;47.450;19.124;2023-05-29T01:34:25;15.40;99.90
44215;DHT22;29884;47.450;19.124;2023-05-29T01:36:50;15.40;99.90
44215;DHT22;29884;47.450;19.124;2023-05-29T01:39:16;15.40;99.90
44215;DHT22;29884;47.450;19.124;2023-05-29T01:41:45;15.40;99.90
44215;DHT22;29884;47.450;19.124;2023-05-29T01:44:12;15.40;99.90
44215;DHT22;29884;47.450;19.124;2023-05-29T01:46:39;15.40;99.90
44215;DHT22;29884;47.450;19.124;2023-05-29T01:49:05;15.40;99.90
44215;DHT22;29884;47.450;19.124;2023-05-29T01:51:32;15.40;99.90
44215;DHT22;29884;47.450;19.124;2023-05-29T01:53:59;15.30;99.90
44215;DHT22;29884;47.450;19.124;2023-05-29T01:56:27;15.20;99.90
44215;DHT22;29884;47.450;19.124;2023-05-29T01:58:56;15.20;99.90
44215;DHT22;29884;47.450;19.124;2023-05-29T02:01:23;15.20;99.90
44215;DHT22;29884;47.450;19.124;2023-05-29T02:03:49;15.20;99.90
44215;DHT22;29884;47.450;19.124;2023-05-29T02:06:15;15.20;99.90
44215;DHT22;29884;47.450;19.124;2023-05-29T02:08:41;15.20;99.90
44215;DHT22;29884;47.450;19.124;2023-05-29T02:11:06;15.10;99.90
44215;DHT22;29884;47.450;19.124;2023-05-29T02:13:32;15.10;99.90
44215;DHT22;29884;47.450;19.124;2023-05-29T02:15:58;15.10;99.90
44215;DHT22;29884;47.450;19.124;2023-05-29T02:18:24;15.10;99.90
44215;DHT22;29884;47.450;19.124;2023-05-29T02:20:51;15.10;99.90
44215;DHT22;29884;47.450;19.124;2023-05-29T02:23:17;15.10;99.90
44215;DHT22;29884;47.450;19.124;2023-05-29T02:25:42;15.10;99.90
44215;DHT22;29884;47.450;19.124;2023-05-29T02:28:08;15.10;99.90
44215;DHT22;29884;47.450;19.124;2023-05-29T02:30:34;15.00;99.90
44215;DHT22;29884;47.450;19.124;2023-05-29T02:33:00;15.00;99.90
44215;DHT22;29884;47.450;19.124;2023-05-29T02:35:27;15.00;99.90
44215;DHT22;29884;47.450;19.124;2023-05-29T02:37:53;15.00;99.90
44215;DHT22;29884;47.450;19.124;2023-05-29T02:40:19;15.00;99.90
44215;DHT22;29884;47.450;19.124;2023-05-29T02:42:45;15.00;99.90
44215;DHT22;29884;47.450;19.124;2023-05-29T02:45:11;15.00;99.90
44215;DHT22;29884;47.450;19.124;2023-05-29T02:47:37;15.00;99.90
44215;DHT22;29884;47.450;19.124;2023-05-29T02:50:03;15.00;99.90
44215;DHT22;29884;47.450;19.124;2023-05-29T02:52:31;15.00;99.90
44215;DHT22;29884;47.450;19.124;2023-05-29T02:54:56;14.90;99.90
44215;DHT22;29884;47.450;19.124;2023-05-29T02:57:24;14.90;99.90
44215;DHT22;29884;47.450;19.124;2023-05-29T02:59:50;14.90;99.90
44215;DHT22;29884;47.450;19.124;2023-05-29T03:02:19;14.90;99.90
44215;DHT22;29884;47.450;19.124;2023-05-29T03:04:45;14.90;99.90
44215;DHT22;29884;47.450;19.124;2023-05-29T03:07:11;14.80;99.90
44215;DHT22;29884;47.450;19.124;2023-05-29T03:09:38;14.80;99.90
44215;DHT22;29884;47.450;19.124;2023-05-29T03:12:04;14.90;99.90
44215;DHT22;29884;47.450;19.124;2023-05-29T03:14:30;14.90;99.90
44215;DHT22;29884;47.450;19.124;2023-05-29T03:17:03;14.80;99.90
44215;DHT22;29884;47.450;19.124;2023-05-29T03:19:29;14.80;99.90
44215;DHT22;29884;47.450;19.124;2023-05-29T03:21:55;14.80;99.90
44215;DHT22;29884;47.450;19.124;2023-05-29T03:24:20;14.80;99.90
44215;DHT22;29884;47.450;19.124;2023-05-29T03:26:49;14.90;99.90
44215;DHT22;29884;47.450;19.124;2023-05-29T03:29:15;14.80;99.90
44215;DHT22;29884;47.450;19.124;2023-05-29T03:31:42;14.80;99.90
44215;DHT22;29884;47.450;19.124;2023-05-29T03:34:07;14.80;99.90
44215;DHT22;29884;47.450;19.124;2023-05-29T03:36:33;14.80;99.90
44215;DHT22;29884;47.450;19.124;2023-05-29T03:39:02;14.90;99.90
44215;DHT22;29884;47.450;19.124;2023-05-29T03:41:28;14.90;99.90
44215;DHT22;29884;47.450;19.124;2023-05-29T03:43:54;14.90;99.90
44215;DHT22;29884;47.450;19.124;2023-05-29T03:46:19;14.90;99.90
44215;DHT22;29884;47.450;19.124;2023-05-29T03:48:45;15.00;99.90
44215;DHT22;29884;47.450;19.124;2023-05-29T03:51:11;15.00;99.90
44215;DHT22;29884;47.450;19.124;2023-05-29T03:53:37;15.00;99.90
44215;DHT22;29884;47.450;19.124;2023-05-29T03:56:02;15.10;99.90
44215;DHT22;29884;47.450;19.124;2023-05-29T03:58:28;15.10;99.90
44215;DHT22;29884;47.450;19.124;2023-05-29T04:00:54;15.10;99.90
44215;DHT22;29884;47.450;19.124;2023-05-29T04:03:20;15.10;99.90
44215;DHT22;29884;47.450;19.124;2023-05-29T04:05:46;15.20;99.90
44215;DHT22;29884;47.450;19.124;2023-05-29T04:08:12;15.20;99.90
44215;DHT22;29884;47.450;19.124;2023-05-29T04:10:39;15.30;99.90
44215;DHT22;29884;47.450;19.124;2023-05-29T04:13:05;15.30;99.90
44215;DHT22;29884;47.450;19.124;2023-05-29T04:15:31;15.30;99.90
44215;DHT22;29884;47.450;19.124;2023-05-29T04:17:59;15.40;99.90
44215;DHT22;29884;47.450;19.124;2023-05-29T04:20:24;15.40;99.90
44215;DHT22;29884;47.450;19.124;2023-05-29T04:22:51;15.50;99.90
44215;DHT22;29884;47.450;19.124;2023-05-29T04:25:17;15.50;99.90
44215;DHT22;29884;47.450;19.124;2023-05-29T04:27:46;15.60;99.90
44215;DHT22;29884;47.450;19.124;2023-05-29T04:30:16;15.70;99.90
44215;DHT22;29884;47.450;19.124;2023-05-29T04:32:42;15.70;99.90
44215;DHT22;29884;47.450;19.124;2023-05-29T04:35:08;15.80;99.90
44215;DHT22;29884;47.450;19.124;2023-05-29T04:37:36;15.80;99.90
44215;DHT22;29884;47.450;19.124;2023-05-29T04:40:06;15.90;99.90
44215;DHT22;29884;47.450;19.124;2023-05-29T04:42:35;15.90;99.90
44215;DHT22;29884;47.450;19.124;2023-05-29T04:45:01;16.00;99.90
44215;DHT22;29884;47.450;19.124;2023-05-29T04:47:28;16.00;99.90
44215;DHT22;29884;47.450;19.124;2023-05-29T04:49:54;16.10;99.90
44215;DHT22;29884;47.450;19.124;2023-05-29T04:52:19;16.20;99.90
44215;DHT22;29884;47.450;19.124;2023-05-29T04:54:46;16.20;99.90
44215;DHT22;29884;47.450;19.124;2023-05-29T04:57:12;16.30;99.90
44215;DHT22;29884;47.450;19.124;2023-05-29T04:59:38;16.40;99.90
44215;DHT22;29884;47.450;19.124;2023-05-29T05:02:04;16.40;99.90
44215;DHT22;29884;47.450;19.124;2023-05-29T05:04:31;16.50;99.90
44215;DHT22;29884;47.450;19.124;2023-05-29T05:06:57;16.60;99.90
44215;DHT22;29884;47.450;19.124;2023-05-29T05:09:23;16.60;99.90
44215;DHT22;29884;47.450;19.124;2023-05-29T05:11:49;16.70;99.90
44215;DHT22;29884;47.450;19.124;2023-05-29T05:14:15;16.80;99.90
44215;DHT22;29884;47.450;19.124;2023-05-29T05:16:40;16.90;99.90
44215;DHT22;29884;47.450;19.124;2023-05-29T05:19:06;17.00;99.90
44215;DHT22;29884;47.450;19.124;2023-05-29T05:21:32;17.00;99.90
44215;DHT22;29884;47.450;19.124;2023-05-29T05:23:59;17.10;99.90
44215;DHT22;29884;47.450;19.124;2023-05-29T05:26:25;17.20;99.90
44215;DHT22;29884;47.450;19.124;2023-05-29T05:28:52;17.20;99.90
44215;DHT22;29884;47.450;19.124;2023-05-29T05:31:18;17.30;99.90
44215;DHT22;29884;47.450;19.124;2023-05-29T05:33:44;17.40;99.90
44215;DHT22;29884;47.450;19.124;2023-05-29T05:36:09;17.50;99.90
44215;DHT22;29884;47.450;19.124;2023-05-29T05:38:36;17.60;99.90
44215;DHT22;29884;47.450;19.124;2023-05-29T05:41:02;17.70;99.90
44215;DHT22;29884;47.450;19.124;2023-05-29T05:43:27;17.70;99.90
44215;DHT22;29884;47.450;19.124;2023-05-29T05:45:54;17.80;99.90
44215;DHT22;29884;47.450;19.124;2023-05-29T05:48:20;17.90;99.90
44215;DHT22;29884;47.450;19.124;2023-05-29T05:50:46;18.00;99.90
44215;DHT22;29884;47.450;19.124;2023-05-29T05:53:11;18.10;99.90
44215;DHT22;29884;47.450;19.124;2023-05-29T05:55:37;18.10;99.90
44215;DHT22;29884;47.450;19.124;2023-05-29T05:58:02;18.20;99.90
44215;DHT22;29884;47.450;19.124;2023-05-29T06:00:28;18.40;99.90
44215;DHT22;29884;47.450;19.124;2023-05-29T06:02:54;18.50;99.90
44215;DHT22;29884;47.450;19.124;2023-05-29T06:05:20;18.70;99.90
44215;DHT22;29884;47.450;19.124;2023-05-29T06:07:46;18.70;99.90
44215;DHT22;29884;47.450;19.124;2023-05-29T06:10:11;18.70;99.90
44215;DHT22;29884;47.450;19.124;2023-05-29T06:12:38;18.80;99.90
44215;DHT22;29884;47.450;19.124;2023-05-29T06:15:04;18.90;99.90
44215;DHT22;29884;47.450;19.124;2023-05-29T06:17:30;19.00;99.90
44215;DHT22;29884;47.450;19.124;2023-05-29T06:19:55;19.00;99.90
44215;DHT22;29884;47.450;19.124;2023-05-29T06:22:21;19.20;99.90
44215;DHT22;29884;47.450;19.124;2023-05-29T06:24:47;19.20;99.90
44215;DHT22;29884;47.450;19.124;2023-05-29T06:27:13;19.30;99.90
44215;DHT22;29884;47.450;19.124;2023-05-29T06:29:38;19.50;99.90
44215;DHT22;29884;47.450;19.124;2023-05-29T06:32:04;19.60;99.90
44215;DHT22;29884;47.450;19.124;2023-05-29T06:34:30;19.70;99.90
44215;DHT22;29884;47.450;19.124;2023-05-29T06:36:56;19.80;99.80
44215;DHT22;29884;47.450;19.124;2023-05-29T06:39:22;19.90;99.90
44215;DHT22;29884;47.450;19.124;2023-05-29T06:41:47;20.00;99.70
44215;DHT22;29884;47.450;19.124;2023-05-29T06:44:13;20.00;99.30
44215;DHT22;29884;47.450;19.124;2023-05-29T06:46:39;20.20;99.00
44215;DHT22;29884;47.450;19.124;2023-05-29T06:49:04;20.30;98.30
44215;DHT22;29884;47.450;19.124;2023-05-29T06:51:30;20.30;98.70
44215;DHT22;29884;47.450;19.124;2023-05-29T06:53:57;20.40;98.00
44215;DHT22;29884;47.450;19.124;2023-05-29T06:56:23;20.50;98.20
44215;DHT22;29884;47.450;19.124;2023-05-29T06:58:49;20.50;98.20
44215;DHT22;29884;47.450;19.124;2023-05-29T07:01:14;20.60;98.60
44215;DHT22;29884;47.450;19.124;2023-05-29T07:03:42;20.90;98.00
44215;DHT22;29884;47.450;19.124;2023-05-29T07:06:08;21.00;98.00
44215;DHT22;29884;47.450;19.124;2023-05-29T07:08:34;21.00;98.30
44215;DHT22;29884;47.450;19.124;2023-05-29T07:11:00;21.20;98.10
44215;DHT22;29884;47.450;19.124;2023-05-29T07:13:26;21.30;97.60
44215;DHT22;29884;47.450;19.124;2023-05-29T07:15:52;21.20;98.20
44215;DHT22;29884;47.450;19.124;2023-05-29T07:18:18;21.10;98.40
44215;DHT22;29884;47.450;19.124;2023-05-29T07:20:44;21.20;97.30
44215;DHT22;29884;47.450;19.124;2023-05-29T07:23:09;21.20;97.90
44215;DHT22;29884;47.450;19.124;2023-05-29T07:25:35;21.20;97.60
44215;DHT22;29884;47.450;19.124;2023-05-29T07:28:01;21.30;97.60
44215;DHT22;29884;47.450;19.124;2023-05-29T07:30:27;21.20;97.20
44215;DHT22;29884;47.450;19.124;2023-05-29T07:32:53;21.30;98.10
44215;DHT22;29884;47.450;19.124;2023-05-29T07:35:18;21.40;97.90
44215;DHT22;29884;47.450;19.124;2023-05-29T07:37:44;21.50;97.50
44215;DHT22;29884;47.450;19.124;2023-05-29T07:40:10;21.70;97.40
44215;DHT22;29884;47.450;19.124;2023-05-29T07:42:35;21.90;95.50
44215;DHT22;29884;47.450;19.124;2023-05-29T07:45:01;21.80;95.10
44215;DHT22;29884;47.450;19.124;2023-05-29T07:47:27;21.90;94.70
44215;DHT22;29884;47.450;19.124;2023-05-29T07:49:53;21.90;93.70
44215;DHT22;29884;47.450;19.124;2023-05-29T07:52:19;21.70;93.90
44215;DHT22;29884;47.450;19.124;2023-05-29T07:54:44;21.80;94.20
44215;DHT22;29884;47.450;19.124;2023-05-29T07:57:10;21.80;94.60
44215;DHT22;29884;47.450;19.124;2023-05-29T07:59:36;21.80;95.00
44215;DHT22;29884;47.450;19.124;2023-05-29T08:02:02;21.90;94.00
44215;DHT22;29884;47.450;19.124;2023-05-29T08:04:29;22.00;94.30
44215;DHT22;29884;47.450;19.124;2023-05-29T08:06:56;22.30;94.00
44215;DHT22;29884;47.450;19.124;2023-05-29T08:09:21;22.30;94.00
44215;DHT22;29884;47.450;19.124;2023-05-29T08:11:47;22.60;92.70
44215;DHT22;29884;47.450;19.124;2023-05-29T08:14:14;22.80;92.60
44215;DHT22;29884;47.450;19.124;2023-05-29T08:16:40;22.70;91.50
44215;DHT22;29884;47.450;19.124;2023-05-29T08:19:05;22.60;90.90
44215;DHT22;29884;47.450;19.124;2023-05-29T08:21:31;23.00;91.40
44215;DHT22;29884;47.450;19.124;2023-05-29T08:23:58;23.20;90.60
44215;DHT22;29884;47.450;19.124;2023-05-29T08:26:24;23.10;90.70
44215;DHT22;29884;47.450;19.124;2023-05-29T08:28:50;23.00;89.30
44215;DHT22;29884;47.450;19.124;2023-05-29T08:31:16;23.20;90.00
44215;DHT22;29884;47.450;19.124;2023-05-29T08:33:42;23.30;88.90
44215;DHT22;29884;47.450;19.124;2023-05-29T08:36:08;23.40;87.70
44215;DHT22;29884;47.450;19.124;2023-05-29T08:38:34;23.60;88.60
44215;DHT22;29884;47.450;19.124;2023-05-29T08:41:01;23.60;88.60
44215;DHT22;29884;47.450;19.124;2023-05-29T08:43:31;23.40;86.80
44215;DHT22;29884;47.450;19.124;2023-05-29T08:46:00;23.80;88.60
44215;DHT22;29884;47.450;19.124;2023-05-29T08:48:28;23.40;84.80
44215;DHT22;29884;47.450;19.124;2023-05-29T08:50:55;23.60;85.80
44215;DHT22;29884;47.450;19.124;2023-05-29T08:53:21;23.40;86.90
44215;DHT22;29884;47.450;19.124;2023-05-29T08:55:48;23.10;87.20
44215;DHT22;29884;47.450;19.124;2023-05-29T08:58:16;23.30;89.60
44215;DHT22;29884;47.450;19.124;2023-05-29T09:00:43;23.40;88.80
44215;DHT22;29884;47.450;19.124;2023-05-29T09:03:09;23.10;87.30
44215;DHT22;29884;47.450;19.124;2023-05-29T09:05:35;22.80;88.40
44215;DHT22;29884;47.450;19.124;2023-05-29T09:08:05;22.90;87.50
44215;DHT22;29884;47.450;19.124;2023-05-29T09:10:31;23.10;88.10
44215;DHT22;29884;47.450;19.124;2023-05-29T09:12:58;23.20;89.50
44215;DHT22;29884;47.450;19.124;2023-05-29T09:15:24;23.30;88.90
44215;DHT22;29884;47.450;19.124;2023-05-29T09:17:51;23.50;88.60
44215;DHT22;29884;47.450;19.124;2023-05-29T09:20:18;23.40;87.30
44215;DHT22;29884;47.450;19.124;2023-05-29T09:23:02;23.40;86.40
44215;DHT22;29884;47.450;19.124;2023-05-29T09:25:30;23.20;87.70
44215;DHT22;29884;47.450;19.124;2023-05-29T09:28:05;23.10;88.40
44215;DHT22;29884;47.450;19.124;2023-05-29T09:30:39;23.00;87.70
44215;DHT22;29884;47.450;19.124;2023-05-29T09:33:10;22.80;88.50
44215;DHT22;29884;47.450;19.124;2023-05-29T09:35:43;22.50;90.30
44215;DHT22;29884;47.450;19.124;2023-05-29T09:38:12;22.40;91.10
44215;DHT22;29884;47.450;19.124;2023-05-29T09:40:39;22.60;91.40
44215;DHT22;29884;47.450;19.124;2023-05-29T09:43:16;22.60;91.00
44215;DHT22;29884;47.450;19.124;2023-05-29T09:45:47;22.50;91.10
44215;DHT22;29884;47.450;19.124;2023-05-29T09:48:23;22.40;90.40
44215;DHT22;29884;47.450;19.124;2023-05-29T09:50:49;22.30;90.70
44215;DHT22;29884;47.450;19.124;2023-05-29T09:55:46;22.30;92.40
44215;DHT22;29884;47.450;19.124;2023-05-29T09:58:23;22.30;92.30
44215;DHT22;29884;47.450;19.124;2023-05-29T10:00:49;22.30;93.40
44215;DHT22;29884;47.450;19.124;2023-05-29T10:03:17;22.10;94.00
44215;DHT22;29884;47.450;19.124;2023-05-29T10:05:47;22.10;95.10
44215;DHT22;29884;47.450;19.124;2023-05-29T10:08:15;21.70;96.20
44215;DHT22;29884;47.450;19.124;2023-05-29T10:10:44;21.50;98.10
44215;DHT22;29884;47.450;19.124;2023-05-29T10:13:12;21.60;99.10
44215;DHT22;29884;47.450;19.124;2023-05-29T10:15:46;21.50;99.90
44215;DHT22;29884;47.450;19.124;2023-05-29T10:18:25;21.30;99.90
44215;DHT22;29884;47.450;19.124;2023-05-29T10:20:52;21.10;99.90
44215;DHT22;29884;47.450;19.124;2023-05-29T10:23:22;21.00;99.90
44215;DHT22;29884;47.450;19.124;2023-05-29T10:25:58;20.70;99.90
44215;DHT22;29884;47.450;19.124;2023-05-29T10:28:27;20.80;99.90
44215;DHT22;29884;47.450;19.124;2023-05-29T10:31:09;20.70;99.90
44215;DHT22;29884;47.450;19.124;2023-05-29T10:36:21;20.30;99.90
44215;DHT22;29884;47.450;19.124;2023-05-29T10:38:49;20.10;99.90
44215;DHT22;29884;47.450;19.124;2023-05-29T10:44:00;20.30;99.90
44215;DHT22;29884;47.450;19.124;2023-05-29T10:49:18;20.40;99.90
44215;DHT22;29884;47.450;19.124;2023-05-29T10:51:44;20.50;99.90
44215;DHT22;29884;47.450;19.124;2023-05-29T10:54:10;20.50;99.90
44215;DHT22;29884;47.450;19.124;2023-05-29T10:56:36;20.50;99.90
44215;DHT22;29884;47.450;19.124;2023-05-29T10:59:02;20.50;99.90
44215;DHT22;29884;47.450;19.124;2023-05-29T11:01:29;20.60;99.90
44215;DHT22;29884;47.450;19.124;2023-05-29T11:06:43;20.80;99.90
44215;DHT22;29884;47.450;19.124;2023-05-29T11:12:22;20.90;99.90
44215;DHT22;29884;47.450;19.124;2023-05-29T11:20:27;21.20;99.90
44215;DHT22;29884;47.450;19.124;2023-05-29T11:23:03;21.20;99.90
44215;DHT22;29884;47.450;19.124;2023-05-29T11:25:33;21.30;99.90
44215;DHT22;29884;47.450;19.124;2023-05-29T11:27:59;21.40;99.90
44215;DHT22;29884;47.450;19.124;2023-05-29T11:30:26;21.50;99.90
44215;DHT22;29884;47.450;19.124;2023-05-29T11:32:52;21.70;99.90
44215;DHT22;29884;47.450;19.124;2023-05-29T11:35:21;21.70;99.90
44215;DHT22;29884;47.450;19.124;2023-05-29T11:37:47;21.80;99.90
44215;DHT22;29884;47.450;19.124;2023-05-29T11:40:14;21.80;99.90
44215;DHT22;29884;47.450;19.124;2023-05-29T11:42:45;21.90;99.90
44215;DHT22;29884;47.450;19.124;2023-05-29T11:45:15;22.00;99.90
44215;DHT22;29884;47.450;19.124;2023-05-29T11:48:10;22.20;99.90
44215;DHT22;29884;47.450;19.124;2023-05-29T11:50:37;22.50;99.90
44215;DHT22;29884;47.450;19.124;2023-05-29T11:53:06;22.80;99.90
44215;DHT22;29884;47.450;19.124;2023-05-29T11:55:32;23.00;99.90
44215;DHT22;29884;47.450;19.124;2023-05-29T11:58:03;23.00;99.90
44215;DHT22;29884;47.450;19.124;2023-05-29T12:00:39;23.10;99.90
44215;DHT22;29884;47.450;19.124;2023-05-29T12:03:06;23.30;99.90
44215;DHT22;29884;47.450;19.124;2023-05-29T12:05:52;23.60;99.90
44215;DHT22;29884;47.450;19.124;2023-05-29T12:08:24;23.80;99.90
44215;DHT22;29884;47.450;19.124;2023-05-29T12:10:51;24.10;99.50
44215;DHT22;29884;47.450;19.124;2023-05-29T12:13:21;24.10;97.90
44215;DHT22;29884;47.450;19.124;2023-05-29T12:15:49;24.10;95.90
44215;DHT22;29884;47.450;19.124;2023-05-29T12:18:15;24.10;94.40
44215;DHT22;29884;47.450;19.124;2023-05-29T12:20:41;24.30;93.80
44215;DHT22;29884;47.450;19.124;2023-05-29T12:23:07;24.30;94.80
44215;DHT22;29884;47.450;19.124;2023-05-29T12:25:34;24.30;94.50
44215;DHT22;29884;47.450;19.124;2023-05-29T12:28:04;24.50;92.30
44215;DHT22;29884;47.450;19.124;2023-05-29T12:30:30;24.70;93.80
44215;DHT22;29884;47.450;19.124;2023-05-29T12:32:56;24.60;91.80
44215;DHT22;29884;47.450;19.124;2023-05-29T12:35:28;25.20;90.50
44215;DHT22;29884;47.450;19.124;2023-05-29T12:37:56;25.80;89.70
44215;DHT22;29884;47.450;19.124;2023-05-29T12:40:23;26.40;88.60
44215;DHT22;29884;47.450;19.124;2023-05-29T12:43:03;26.60;85.40
44215;DHT22;29884;47.450;19.124;2023-05-29T12:45:30;26.70;78.70
44215;DHT22;29884;47.450;19.124;2023-05-29T12:47:59;27.00;76.70
44215;DHT22;29884;47.450;19.124;2023-05-29T12:50:30;27.20;76.00
44215;DHT22;29884;47.450;19.124;2023-05-29T12:53:10;27.20;77.60
44215;DHT22;29884;47.450;19.124;2023-05-29T12:55:38;26.70;73.90
44215;DHT22;29884;47.450;19.124;2023-05-29T12:58:05;26.70;73.80
44215;DHT22;29884;47.450;19.124;2023-05-29T13:00:31;26.70;71.10
44215;DHT22;29884;47.450;19.124;2023-05-29T13:02:57;26.10;68.20
44215;DHT22;29884;47.450;19.124;2023-05-29T13:05:24;25.70;72.60
44215;DHT22;29884;47.450;19.124;2023-05-29T13:07:51;25.70;71.00
44215;DHT22;29884;47.450;19.124;2023-05-29T13:10:18;25.50;70.40
44215;DHT22;29884;47.450;19.124;2023-05-29T13:12:44;25.50;68.00
44215;DHT22;29884;47.450;19.124;2023-05-29T13:15:12;25.40;67.70
44215;DHT22;29884;47.450;19.124;2023-05-29T13:17:39;25.50;67.20
44215;DHT22;29884;47.450;19.124;2023-05-29T13:20:08;25.40;70.00
44215;DHT22;29884;47.450;19.124;2023-05-29T13:22:35;25.40;70.60
44215;DHT22;29884;47.450;19.124;2023-05-29T13:25:01;25.10;82.60
44215;DHT22;29884;47.450;19.124;2023-05-29T13:27:27;25.00;88.60
44215;DHT22;29884;47.450;19.124;2023-05-29T13:29:53;24.80;90.30
44215;DHT22;29884;47.450;19.124;2023-05-29T13:32:20;24.60;90.50
44215;DHT22;29884;47.450;19.124;2023-05-29T13:34:45;24.50;90.80
44215;DHT22;29884;47.450;19.124;2023-05-29T13:37:11;24.40;92.10
44215;DHT22;29884;47.450;19.124;2023-05-29T13:39:37;24.40;92.00
44215;DHT22;29884;47.450;19.124;2023-05-29T13:42:03;24.20;91.90
44215;DHT22;29884;47.450;19.124;2023-05-29T13:44:28;24.20;92.40
44215;DHT22;29884;47.450;19.124;2023-05-29T13:46:54;24.20;92.20
44215;DHT22;29884;47.450;19.124;2023-05-29T13:49:20;24.10;91.70
44215;DHT22;29884;47.450;19.124;2023-05-29T13:51:46;24.20;92.80
44215;DHT22;29884;47.450;19.124;2023-05-29T13:54:15;24.30;92.20
44215;DHT22;29884;47.450;19.124;2023-05-29T13:56:41;24.20;91.70
44215;DHT22;29884;47.450;19.124;2023-05-29T13:59:06;24.20;92.20
44215;DHT22;29884;47.450;19.124;2023-05-29T14:01:35;24.40;91.60
44215;DHT22;29884;47.450;19.124;2023-05-29T14:04:01;24.40;92.20
44215;DHT22;29884;47.450;19.124;2023-05-29T14:06:27;24.50;91.80
44215;DHT22;29884;47.450;19.124;2023-05-29T14:08:53;24.40;90.70
44215;DHT22;29884;47.450;19.124;2023-05-29T14:11:18;24.30;90.20
44215;DHT22;29884;47.450;19.124;2023-05-29T14:13:44;24.40;90.20
44215;DHT22;29884;47.450;19.124;2023-05-29T14:16:10;24.40;86.90
44215;DHT22;29884;47.450;19.124;2023-05-29T14:18:36;24.50;81.60
44215;DHT22;29884;47.450;19.124;2023-05-29T14:21:02;24.50;83.10
44215;DHT22;29884;47.450;19.124;2023-05-29T14:23:27;24.40;82.50
44215;DHT22;29884;47.450;19.124;2023-05-29T14:25:53;24.60;84.30
44215;DHT22;29884;47.450;19.124;2023-05-29T14:28:19;24.60;81.80
44215;DHT22;29884;47.450;19.124;2023-05-29T14:30:45;24.70;79.40
44215;DHT22;29884;47.450;19.124;2023-05-29T14:33:11;24.80;81.10
44215;DHT22;29884;47.450;19.124;2023-05-29T14:35:36;24.80;79.20
44215;DHT22;29884;47.450;19.124;2023-05-29T14:38:02;24.80;79.00
44215;DHT22;29884;47.450;19.124;2023-05-29T14:40:28;24.80;80.90
44215;DHT22;29884;47.450;19.124;2023-05-29T14:42:54;24.70;79.70
44215;DHT22;29884;47.450;19.124;2023-05-29T14:45:21;24.80;77.50
44215;DHT22;29884;47.450;19.124;2023-05-29T14:47:47;24.90;78.20
44215;DHT22;29884;47.450;19.124;2023-05-29T14:50:13;24.80;76.40
44215;DHT22;29884;47.450;19.124;2023-05-29T14:52:40;24.60;75.90
44215;DHT22;29884;47.450;19.124;2023-05-29T14:55:06;24.60;76.20
44215;DHT22;29884;47.450;19.124;2023-05-29T14:57:32;24.60;76.60
44215;DHT22;29884;47.450;19.124;2023-05-29T15:00:00;24.60;76.80
44215;DHT22;29884;47.450;19.124;2023-05-29T15:02:26;24.50;76.70
44215;DHT22;29884;47.450;19.124;2023-05-29T15:04:52;24.50;77.40
44215;DHT22;29884;47.450;19.124;2023-05-29T15:07:18;24.50;76.80
44215;DHT22;29884;47.450;19.124;2023-05-29T15:09:43;24.40;76.70
44215;DHT22;29884;47.450;19.124;2023-05-29T15:12:09;24.40;77.10
44215;DHT22;29884;47.450;19.124;2023-05-29T15:14:35;24.40;76.10
44215;DHT22;29884;47.450;19.124;2023-05-29T15:17:03;24.30;78.30
44215;DHT22;29884;47.450;19.124;2023-05-29T15:19:29;24.30;77.90
44215;DHT22;29884;47.450;19.124;2023-05-29T15:21:56;24.30;78.10
44215;DHT22;29884;47.450;19.124;2023-05-29T15:24:21;24.30;77.30
44215;DHT22;29884;47.450;19.124;2023-05-29T15:26:48;24.20;77.10
44215;DHT22;29884;47.450;19.124;2023-05-29T15:29:15;24.20;77.10
44215;DHT22;29884;47.450;19.124;2023-05-29T15:31:41;24.30;76.90
44215;DHT22;29884;47.450;19.124;2023-05-29T15:34:08;24.30;76.70
44215;DHT22;29884;47.450;19.124;2023-05-29T15:36:34;24.30;77.60
44215;DHT22;29884;47.450;19.124;2023-05-29T15:39:02;24.30;78.20
44215;DHT22;29884;47.450;19.124;2023-05-29T15:41:28;24.30;78.40
44215;DHT22;29884;47.450;19.124;2023-05-29T15:43:55;24.30;79.00